createdAt,value
2023-01-07T00:00:53.077Z,12.13
2023-01-07T00:03:20.755Z,11.77
2023-01-07T00:05:48.144Z,11.93
2023-01-07T00:08:15.440Z,12.18
2023-01-07T00:10:42.671Z,11.75
2023-01-07T00:13:10.006Z,13.05
2023-01-07T00:15:37.365Z,9.80
2023-01-07T00:18:04.753Z,12.35
2023-01-07T00:20:32.140Z,8.98
2023-01-07T00:22:59.501Z,9.82
2023-01-07T00:25:27.106Z,8.57
2023-01-07T00:27:54.636Z,8.43
2023-01-07T00:30:21.929Z,9.85
2023-01-07T00:33:04.282Z,9.25
2023-01-07T00:35:32.519Z,9.15
2023-01-07T00:37:59.839Z,11.10
2023-01-07T00:40:27.094Z,9.80
2023-01-07T00:42:54.388Z,9.60
2023-01-07T00:45:22.538Z,8.18
2023-01-07T00:47:53.614Z,10.35
2023-01-07T00:50:25.270Z,8.05
2023-01-07T00:52:52.531Z,9.18
2023-01-07T00:55:19.852Z,7.03
2023-01-07T00:57:47.118Z,7.38
2023-01-07T01:00:15.266Z,6.72
2023-01-07T01:02:42.864Z,8.00
2023-01-07T01:05:10.349Z,7.20
2023-01-07T01:07:37.751Z,7.05
2023-01-07T01:10:05.605Z,5.03
2023-01-07T01:12:35.460Z,5.22
2023-01-07T01:15:03.649Z,4.00
2023-01-07T01:17:31.085Z,4.63
2023-01-07T01:19:58.400Z,4.40
2023-01-07T01:22:25.627Z,5.97
2023-01-07T01:24:52.960Z,4.68
2023-01-07T01:27:20.571Z,4.20
2023-01-07T01:29:47.898Z,4.97
2023-01-07T01:32:15.134Z,3.70
2023-01-07T01:34:42.391Z,4.05
2023-01-07T01:37:09.694Z,3.20
2023-01-07T01:39:36.962Z,3.67
2023-01-07T01:42:04.326Z,3.55
2023-01-07T01:44:37.674Z,3.10
2023-01-07T01:47:06.840Z,3.55
2023-01-07T01:49:36.305Z,2.95
2023-01-07T01:52:13.845Z,3.28
2023-01-07T01:54:42.575Z,4.55
2023-01-07T01:57:10.078Z,3.83
2023-01-07T01:59:39.052Z,3.13
2023-01-07T02:02:07.151Z,3.92
2023-01-07T02:04:34.673Z,3.90
2023-01-07T02:07:06.323Z,3.63
2023-01-07T02:09:33.672Z,5.18
2023-01-07T02:12:07.075Z,7.05
2023-01-07T02:14:46.585Z,3.63
2023-01-07T02:17:22.771Z,4.32
2023-01-07T02:20:08.462Z,5.40
2023-01-07T02:25:09.238Z,3.47
2023-01-07T02:27:55.392Z,3.63
2023-01-07T02:30:41.541Z,3.50
2023-01-07T02:33:21.225Z,4.05
2023-01-07T02:35:51.499Z,4.05
2023-01-07T02:38:37.218Z,3.58
2023-01-07T02:43:43.680Z,4.25
2023-01-07T02:46:32.700Z,3.95
2023-01-07T02:49:00.914Z,3.95
2023-01-07T02:51:35.248Z,3.38
2023-01-07T02:54:02.557Z,4.43
2023-01-07T02:56:37.742Z,4.55
2023-01-07T02:59:10.854Z,3.47
2023-01-07T03:01:56.281Z,3.53
2023-01-07T03:04:42.141Z,4.65
2023-01-07T03:07:09.311Z,3.63
2023-01-07T03:09:42.581Z,3.15
2023-01-07T03:12:20.186Z,3.30
2023-01-07T03:14:52.306Z,3.33
2023-01-07T03:17:21.863Z,3.28
2023-01-07T03:19:51.819Z,3.45
2023-01-07T03:22:21.269Z,5.05
2023-01-07T03:24:49.780Z,4.57
2023-01-07T03:27:19.016Z,3.85
2023-01-07T03:29:47.388Z,4.57
2023-01-07T03:32:18.618Z,6.10
2023-01-07T03:34:46.389Z,5.45
2023-01-07T03:37:15.121Z,3.45
2023-01-07T03:39:42.859Z,4.03
2023-01-07T03:42:29.735Z,5.80
2023-01-07T03:44:57.628Z,4.07
2023-01-07T03:47:25.923Z,4.40
2023-01-07T03:49:53.169Z,4.00
2023-01-07T03:52:20.422Z,4.95
2023-01-07T03:54:47.623Z,4.22
2023-01-07T03:57:14.821Z,4.65
2023-01-07T03:59:42.058Z,5.10
2023-01-07T04:02:09.438Z,4.30
2023-01-07T04:04:36.900Z,5.38
2023-01-07T04:07:04.155Z,6.10
2023-01-07T04:09:31.428Z,4.78
2023-01-07T04:11:58.676Z,4.40
2023-01-07T04:14:25.979Z,4.65
2023-01-07T04:16:53.323Z,3.88
2023-01-07T04:19:20.633Z,4.82
2023-01-07T04:21:47.911Z,4.10
2023-01-07T04:24:15.246Z,8.57
2023-01-07T04:26:42.553Z,5.97
2023-01-07T04:29:09.781Z,4.20
2023-01-07T04:31:37.100Z,4.65
2023-01-07T04:34:04.334Z,5.05
2023-01-07T04:36:31.572Z,4.60
2023-01-07T04:38:58.865Z,4.20
2023-01-07T04:41:26.110Z,5.35
2023-01-07T04:43:53.342Z,5.28
2023-01-07T04:46:20.854Z,4.85
2023-01-07T04:48:48.109Z,4.53
2023-01-07T04:51:15.330Z,4.22
2023-01-07T04:53:42.561Z,4.13
2023-01-07T04:56:09.937Z,4.25
2023-01-07T04:58:37.273Z,7.05
2023-01-07T05:01:04.956Z,5.75
2023-01-07T05:03:34.513Z,5.47
2023-01-07T05:06:01.913Z,7.15
2023-01-07T05:08:29.366Z,7.57
2023-01-07T05:10:56.701Z,6.32
2023-01-07T05:13:24.679Z,6.55
2023-01-07T05:15:51.917Z,6.20
2023-01-07T05:18:19.224Z,5.43
2023-01-07T05:20:47.654Z,6.63
2023-01-07T05:23:14.913Z,5.25
2023-01-07T05:25:42.180Z,6.53
2023-01-07T05:28:10.335Z,6.43
2023-01-07T05:30:37.655Z,6.75
2023-01-07T05:33:07.321Z,6.13
2023-01-07T05:35:35.374Z,6.40
2023-01-07T05:38:02.701Z,5.95
2023-01-07T05:40:30.084Z,5.78
2023-01-07T05:42:57.367Z,5.63
2023-01-07T05:45:24.623Z,6.82
2023-01-07T05:47:51.856Z,5.60
2023-01-07T05:50:19.118Z,5.18
2023-01-07T05:52:46.499Z,5.60
2023-01-07T05:55:13.776Z,4.88
2023-01-07T05:57:41.040Z,6.70
2023-01-07T06:00:10.419Z,4.47
2023-01-07T06:02:38.068Z,3.92
2023-01-07T06:05:06.627Z,10.52
2023-01-07T06:07:33.895Z,5.25
2023-01-07T06:10:02.909Z,5.22
2023-01-07T06:12:30.513Z,5.82
2023-01-07T06:14:57.769Z,4.68
2023-01-07T06:17:25.003Z,5.78
2023-01-07T06:19:52.309Z,9.60
2023-01-07T06:22:19.523Z,4.30
2023-01-07T06:24:46.842Z,4.18
2023-01-07T06:27:14.059Z,5.55
2023-01-07T06:29:41.425Z,5.10
2023-01-07T06:32:08.687Z,7.53
2023-01-07T06:34:36.061Z,5.28
2023-01-07T06:37:03.307Z,5.07
2023-01-07T06:39:30.770Z,6.15
2023-01-07T06:41:58.079Z,4.50
2023-01-07T06:44:25.345Z,3.88
2023-01-07T06:46:52.617Z,5.07
2023-01-07T06:49:19.851Z,4.32
2023-01-07T06:51:47.167Z,4.93
2023-01-07T06:54:14.425Z,4.97
2023-01-07T06:56:41.681Z,5.35
2023-01-07T06:59:08.907Z,4.05
2023-01-07T07:01:36.244Z,3.78
2023-01-07T07:04:03.576Z,6.00
2023-01-07T07:06:30.847Z,4.07
2023-01-07T07:08:58.077Z,4.03
2023-01-07T07:11:25.315Z,4.30
2023-01-07T07:13:52.639Z,4.20
2023-01-07T07:16:22.722Z,5.75
2023-01-07T07:18:50.164Z,4.93
2023-01-07T07:21:17.568Z,6.07
2023-01-07T07:23:44.924Z,4.00
2023-01-07T07:26:12.620Z,6.18
2023-01-07T07:28:42.785Z,6.80
2023-01-07T07:31:10.697Z,10.80
2023-01-07T07:33:38.064Z,11.40
2023-01-07T07:36:05.844Z,9.50
2023-01-07T07:38:33.071Z,10.98
2023-01-07T07:41:04.904Z,10.57
2023-01-07T07:43:33.272Z,9.48
2023-01-07T07:46:03.203Z,10.27
2023-01-07T07:48:32.399Z,10.73
2023-01-07T07:51:00.615Z,9.30
2023-01-07T07:53:28.916Z,8.25
2023-01-07T07:55:58.153Z,22.27
2023-01-07T07:58:28.213Z,8.55
2023-01-07T08:00:58.005Z,12.20
2023-01-07T08:03:28.402Z,12.57
2023-01-07T08:05:56.602Z,8.40
2023-01-07T08:08:24.100Z,10.50
2023-01-07T08:10:52.395Z,8.77
2023-01-07T08:13:20.114Z,9.20
2023-01-07T08:15:48.134Z,7.13
2023-01-07T08:18:19.343Z,8.13
2023-01-07T08:20:48.857Z,7.80
2023-01-07T08:23:16.953Z,7.20
2023-01-07T08:25:44.396Z,6.32
2023-01-07T08:28:12.690Z,4.90
2023-01-07T08:30:40.220Z,5.75
2023-01-07T08:33:08.775Z,5.97
2023-01-07T08:35:36.402Z,5.03
2023-01-07T08:38:04.962Z,4.65
2023-01-07T08:40:32.609Z,6.32
2023-01-07T08:43:00.974Z,12.52
2023-01-07T08:45:28.975Z,12.95
2023-01-07T08:48:00.189Z,5.95
2023-01-07T08:50:28.592Z,5.57
2023-01-07T08:52:56.126Z,10.43
2023-01-07T08:55:24.033Z,3.90
2023-01-07T08:57:51.921Z,4.90
2023-01-07T09:00:20.014Z,6.40
2023-01-07T09:02:47.707Z,5.18
2023-01-07T09:05:15.292Z,4.57
2023-01-07T09:07:43.220Z,2.95
2023-01-07T09:10:11.470Z,6.97
2023-01-07T09:12:40.336Z,3.22
2023-01-07T09:15:08.251Z,3.78
2023-01-07T09:17:35.965Z,1.95
2023-01-07T09:20:04.152Z,1.90
2023-01-07T09:22:32.801Z,2.22
2023-01-07T09:25:00.336Z,4.28
2023-01-07T09:27:27.889Z,5.40
2023-01-07T09:29:58.832Z,3.33
2023-01-07T09:32:30.355Z,3.28
2023-01-07T09:34:58.257Z,3.20
2023-01-07T09:37:25.788Z,2.67
2023-01-07T09:39:54.176Z,4.00
2023-01-07T09:42:34.071Z,9.90
2023-01-07T09:45:20.600Z,3.83
2023-01-07T09:47:49.789Z,4.80
2023-01-07T09:50:27.978Z,3.42
2023-01-07T09:52:58.251Z,3.88
2023-01-07T09:55:30.229Z,6.05
2023-01-07T09:57:58.204Z,4.30
2023-01-07T10:00:26.242Z,2.50
2023-01-07T10:03:20.135Z,2.67
2023-01-07T10:06:05.601Z,2.38
2023-01-07T10:08:45.603Z,7.15
2023-01-07T10:11:18.692Z,1.38
2023-01-07T10:13:55.451Z,3.17
2023-01-07T10:16:32.328Z,2.08
2023-01-07T10:19:04.792Z,5.88
2023-01-07T10:21:44.070Z,12.45
2023-01-07T10:24:21.999Z,4.35
2023-01-07T10:26:52.015Z,2.63
2023-01-07T10:29:31.825Z,3.30
2023-01-07T10:32:00.854Z,1.98
2023-01-07T10:34:36.731Z,3.65
2023-01-07T10:37:08.714Z,3.90
2023-01-07T10:39:44.897Z,2.88
2023-01-07T10:42:27.694Z,6.65
2023-01-07T10:45:21.406Z,3.63
2023-01-07T10:47:51.924Z,2.83
2023-01-07T10:50:22.503Z,3.85
2023-01-07T10:52:57.412Z,2.30
2023-01-07T10:55:32.128Z,2.35
2023-01-07T10:57:59.729Z,3.20
2023-01-07T11:00:27.799Z,2.10
2023-01-07T11:02:57.952Z,3.10
2023-01-07T11:05:34.404Z,4.07
2023-01-07T11:08:02.581Z,3.78
2023-01-07T11:10:32.187Z,5.25
2023-01-07T11:13:04.153Z,3.03
2023-01-07T11:15:31.557Z,1.08
2023-01-07T11:18:01.968Z,2.67
2023-01-07T11:20:58.848Z,2.22
2023-01-07T11:23:33.926Z,1.70
2023-01-07T11:26:16.759Z,2.10
2023-01-07T11:29:04.370Z,2.08
2023-01-07T11:31:49.790Z,1.65
2023-01-07T11:34:24.157Z,1.52
2023-01-07T11:36:51.989Z,1.83
2023-01-07T11:39:20.727Z,3.00
2023-01-07T11:42:00.406Z,4.53
2023-01-07T11:44:28.095Z,2.60
2023-01-07T11:46:55.790Z,8.25
2023-01-07T11:49:25.968Z,4.47
2023-01-07T11:51:53.532Z,6.47
2023-01-07T11:54:25.600Z,6.75
2023-01-07T11:56:55.236Z,4.53
2023-01-07T11:59:30.078Z,2.03
2023-01-07T12:01:59.695Z,1.92
2023-01-07T12:04:31.591Z,3.22
2023-01-07T12:07:04.522Z,1.90
2023-01-07T12:09:35.105Z,3.85
2023-01-07T12:12:35.099Z,3.22
2023-01-07T12:15:04.775Z,2.17
2023-01-07T12:17:33.564Z,6.35
2023-01-07T12:20:13.307Z,0.82
2023-01-07T12:22:50.245Z,1.30
2023-01-07T12:25:36.239Z,2.13
2023-01-07T12:28:26.898Z,3.60
2023-01-07T12:31:07.396Z,5.65
2023-01-07T12:33:46.488Z,2.45
2023-01-07T12:36:19.378Z,1.60
2023-01-07T12:38:54.765Z,1.40
2023-01-07T12:41:42.506Z,2.28
2023-01-07T12:44:17.457Z,9.00
2023-01-07T12:46:48.485Z,2.15
2023-01-07T12:49:22.106Z,1.05
2023-01-07T12:51:49.583Z,2.00
2023-01-07T12:54:19.625Z,1.00
2023-01-07T12:57:16.961Z,1.15
2023-01-07T12:59:48.308Z,0.63
2023-01-07T13:02:30.805Z,1.02
2023-01-07T13:04:58.860Z,1.48
2023-01-07T13:08:04.562Z,1.85
2023-01-07T13:10:36.530Z,6.03
2023-01-07T13:13:07.326Z,2.63
2023-01-07T13:15:36.716Z,1.55
2023-01-07T13:18:09.557Z,1.70
2023-01-07T13:20:56.272Z,1.27
2023-01-07T13:23:34.890Z,2.13
2023-01-07T13:26:08.578Z,1.40
2023-01-07T13:28:51.425Z,3.17
2023-01-07T13:31:19.003Z,2.72
2023-01-07T13:33:55.828Z,2.13
2023-01-07T13:36:31.351Z,3.10
2023-01-07T13:39:17.775Z,4.22
2023-01-07T13:41:48.205Z,7.97
2023-01-07T13:44:34.114Z,4.82
2023-01-07T13:47:02.984Z,2.58
2023-01-07T13:49:32.330Z,3.95
2023-01-07T13:52:18.277Z,3.17
2023-01-07T13:54:49.271Z,1.77
2023-01-07T13:57:25.632Z,1.60
2023-01-07T13:59:54.936Z,2.72
2023-01-07T14:02:26.521Z,3.22
2023-01-07T14:05:12.408Z,1.98
2023-01-07T14:07:51.731Z,3.35
2023-01-07T14:10:39.326Z,6.03
2023-01-07T14:13:25.532Z,1.45
2023-01-07T14:15:55.789Z,2.88
2023-01-07T14:18:29.513Z,2.85
2023-01-07T14:21:17.540Z,5.47
2023-01-07T14:23:51.039Z,2.08
2023-01-07T14:26:18.511Z,1.65
2023-01-07T14:29:02.383Z,5.40
2023-01-07T14:31:30.662Z,1.30
2023-01-07T14:34:09.117Z,2.47
2023-01-07T14:36:55.366Z,2.67
2023-01-07T14:39:33.756Z,1.70
2023-01-07T14:42:30.651Z,2.58
2023-01-07T14:44:58.112Z,1.50
2023-01-07T14:47:44.187Z,2.22
2023-01-07T14:50:19.088Z,2.08
2023-01-07T14:52:55.680Z,13.13
2023-01-07T14:55:35.103Z,2.65
2023-01-07T14:58:21.182Z,2.10
2023-01-07T15:00:57.807Z,2.20
2023-01-07T15:03:37.377Z,2.90
2023-01-07T15:06:23.480Z,1.00
2023-01-07T15:09:11.427Z,3.00
2023-01-07T15:12:00.108Z,5.95
2023-01-07T15:15:00.238Z,2.40
2023-01-07T15:17:27.695Z,6.00
2023-01-07T15:19:56.585Z,2.65
2023-01-07T15:22:36.268Z,8.27
2023-01-07T15:25:23.905Z,1.80
2023-01-07T15:27:51.219Z,2.00
2023-01-07T15:30:27.909Z,2.58
2023-01-07T15:33:11.871Z,1.88
2023-01-07T15:35:42.747Z,3.25
2023-01-07T15:38:29.309Z,4.05
2023-01-07T15:40:59.086Z,2.92
2023-01-07T15:43:27.985Z,2.88
2023-01-07T15:46:07.211Z,3.97
2023-01-07T15:48:34.830Z,3.08
2023-01-07T15:51:03.551Z,2.70
2023-01-07T15:53:32.180Z,1.75
2023-01-07T15:56:08.266Z,2.25
2023-01-07T15:58:46.226Z,2.10
2023-01-07T16:01:18.278Z,2.88
2023-01-07T16:03:46.996Z,1.52
2023-01-07T16:06:33.610Z,1.55
2023-01-07T16:09:03.997Z,2.00
2023-01-07T16:11:32.319Z,3.17
2023-01-07T16:14:04.289Z,3.28
2023-01-07T16:16:33.105Z,2.10
2023-01-07T16:19:01.431Z,2.35
2023-01-07T16:21:34.201Z,3.38
2023-01-07T16:24:01.882Z,3.85
2023-01-07T16:26:46.765Z,2.72
2023-01-07T16:29:18.269Z,6.90
2023-01-07T16:31:45.849Z,4.20
2023-01-07T16:34:25.491Z,3.50
2023-01-07T16:37:00.495Z,2.30
2023-01-07T16:39:32.909Z,2.50
2023-01-07T16:42:19.097Z,2.45
2023-01-07T16:44:49.735Z,2.33
2023-01-07T16:47:22.518Z,4.15
2023-01-07T16:49:57.227Z,2.40
2023-01-07T16:52:29.463Z,2.50
2023-01-07T16:54:56.888Z,2.55
2023-01-07T16:57:39.022Z,2.47
2023-01-07T17:00:16.115Z,2.55
2023-01-07T17:02:43.579Z,3.30
2023-01-07T17:05:11.105Z,2.42
2023-01-07T17:07:39.085Z,2.72
2023-01-07T17:10:09.397Z,2.42
2023-01-07T17:12:39.147Z,4.45
2023-01-07T17:15:26.075Z,3.25
2023-01-07T17:17:53.650Z,4.13
2023-01-07T17:20:22.883Z,3.05
2023-01-07T17:22:50.503Z,4.10
2023-01-07T17:25:24.692Z,2.58
2023-01-07T17:27:55.829Z,3.50
2023-01-07T17:30:24.150Z,2.03
2023-01-07T17:32:53.217Z,2.08
2023-01-07T17:35:24.823Z,2.50
2023-01-07T17:37:53.086Z,2.33
2023-01-07T17:40:20.794Z,3.13
2023-01-07T17:43:08.184Z,5.00
2023-01-07T17:45:35.708Z,2.53
2023-01-07T17:48:03.192Z,4.65
2023-01-07T17:50:36.487Z,3.42
2023-01-07T17:53:04.518Z,2.50
2023-01-07T17:55:32.950Z,2.58
2023-01-07T17:58:00.253Z,2.95
2023-01-07T18:00:30.851Z,2.38
2023-01-07T18:02:58.694Z,2.47
2023-01-07T18:05:26.935Z,3.33
2023-01-07T18:07:54.454Z,3.60
2023-01-07T18:10:29.365Z,3.00
2023-01-07T18:12:56.882Z,3.20
2023-01-07T18:15:27.053Z,2.55
2023-01-07T18:17:54.384Z,2.60
2023-01-07T18:20:23.247Z,2.83
2023-01-07T18:22:51.313Z,3.30
2023-01-07T18:25:22.654Z,2.45
2023-01-07T18:27:53.979Z,2.58
2023-01-07T18:30:22.843Z,2.58
2023-01-07T18:32:53.195Z,2.72
2023-01-07T18:35:22.980Z,3.95
2023-01-07T18:37:51.117Z,2.30
2023-01-07T18:40:22.355Z,2.80
2023-01-07T18:42:52.620Z,3.08
2023-01-07T18:45:20.155Z,2.70
2023-01-07T18:47:50.250Z,3.45
2023-01-07T18:50:17.755Z,2.47
2023-01-07T18:52:45.201Z,3.38
2023-01-07T18:55:12.652Z,3.60
2023-01-07T18:57:40.225Z,4.35
2023-01-07T19:00:10.229Z,4.25
2023-01-07T19:02:37.652Z,4.25
2023-01-07T19:05:05.122Z,3.70
2023-01-07T19:07:32.501Z,5.53
2023-01-07T19:10:00.264Z,4.18
2023-01-07T19:12:28.000Z,4.90
2023-01-07T19:15:01.611Z,3.97
2023-01-07T19:17:29.329Z,2.85
2023-01-07T19:19:56.633Z,2.90
2023-01-07T19:22:24.045Z,3.70
2023-01-07T19:24:51.514Z,3.40
2023-01-07T19:27:18.898Z,4.55
2023-01-07T19:29:46.358Z,4.28
2023-01-07T19:32:14.296Z,3.55
2023-01-07T19:34:41.771Z,3.45
2023-01-07T19:37:09.168Z,4.00
2023-01-07T19:39:36.851Z,4.05
2023-01-07T19:42:04.928Z,2.92
2023-01-07T19:44:34.511Z,4.82
2023-01-07T19:47:01.973Z,5.95
2023-01-07T19:49:30.124Z,3.78
2023-01-07T19:51:57.975Z,3.45
2023-01-07T19:54:25.321Z,3.80
2023-01-07T19:56:52.705Z,3.88
2023-01-07T19:59:21.400Z,3.50
2023-01-07T20:01:50.162Z,5.13
2023-01-07T20:04:17.776Z,3.83
2023-01-07T20:06:47.089Z,3.53
2023-01-07T20:09:14.572Z,4.00
2023-01-07T20:11:45.583Z,3.80
2023-01-07T20:14:13.536Z,4.15
2023-01-07T20:16:41.861Z,4.32
2023-01-07T20:19:12.787Z,4.40
2023-01-07T20:21:40.327Z,5.22
2023-01-07T20:24:08.106Z,5.85
2023-01-07T20:26:38.355Z,5.43
2023-01-07T20:29:08.833Z,4.88
2023-01-07T20:31:36.359Z,4.18
2023-01-07T20:34:03.916Z,4.75
2023-01-07T20:36:32.256Z,3.55
2023-01-07T20:39:05.411Z,6.30
2023-01-07T20:41:34.016Z,6.30
2023-01-07T20:44:02.581Z,5.22
2023-01-07T20:46:30.702Z,5.75
2023-01-07T20:48:58.802Z,6.43
2023-01-07T20:51:26.198Z,6.20
2023-01-07T20:53:53.619Z,7.60
2023-01-07T20:56:22.575Z,5.20
2023-01-07T20:58:50.365Z,5.78
2023-01-07T21:01:20.131Z,6.68
2023-01-07T21:03:47.686Z,6.93
2023-01-07T21:06:17.728Z,5.88
2023-01-07T21:08:46.714Z,7.72
2023-01-07T21:11:15.970Z,5.70
2023-01-07T21:13:43.693Z,5.50
2023-01-07T21:16:11.205Z,6.25
2023-01-07T21:18:38.613Z,4.65
2023-01-07T21:21:13.440Z,5.97
2023-01-07T21:23:40.904Z,4.22
2023-01-07T21:26:09.108Z,6.22
2023-01-07T21:28:36.901Z,4.13
2023-01-07T21:31:06.294Z,5.50
2023-01-07T21:33:34.094Z,9.75
2023-01-07T21:36:01.659Z,4.78
2023-01-07T21:38:29.008Z,6.28
2023-01-07T21:40:56.469Z,3.67
2023-01-07T21:43:23.852Z,5.95
2023-01-07T21:45:51.365Z,4.28
2023-01-07T21:48:18.688Z,5.60
2023-01-07T21:50:46.037Z,4.75
2023-01-07T21:53:16.206Z,4.97
2023-01-07T21:55:43.553Z,4.75
2023-01-07T21:58:11.028Z,6.32
2023-01-07T22:00:38.429Z,10.35
2023-01-07T22:03:05.809Z,12.30
2023-01-07T22:05:33.455Z,10.48
2023-01-07T22:08:00.856Z,15.93
2023-01-07T22:10:28.232Z,11.45
2023-01-07T22:12:55.664Z,10.20
2023-01-07T22:15:23.041Z,8.63
2023-01-07T22:17:50.389Z,9.15
2023-01-07T22:20:17.882Z,10.55
2023-01-07T22:22:45.149Z,7.82
2023-01-07T22:25:12.788Z,8.18
2023-01-07T22:27:40.136Z,6.25
2023-01-07T22:30:08.461Z,7.95
2023-01-07T22:32:35.965Z,6.68
2023-01-07T22:35:03.318Z,5.20
2023-01-07T22:37:30.696Z,3.55
2023-01-07T22:40:01.136Z,4.75
2023-01-07T22:42:36.004Z,4.05
2023-01-07T22:45:10.486Z,5.05
2023-01-07T22:47:40.407Z,6.35
2023-01-07T22:50:08.747Z,3.92
2023-01-07T22:52:36.777Z,3.97
2023-01-07T22:55:04.340Z,7.05
2023-01-07T22:57:31.669Z,3.40
2023-01-07T23:00:00.642Z,3.13
2023-01-07T23:02:28.716Z,4.75
2023-01-07T23:04:56.095Z,3.25
2023-01-07T23:07:23.663Z,4.95
2023-01-07T23:09:55.404Z,4.43
2023-01-07T23:12:22.859Z,8.60
2023-01-07T23:14:50.216Z,8.50
2023-01-07T23:17:17.539Z,7.10
2023-01-07T23:19:44.983Z,7.93
2023-01-07T23:22:12.368Z,9.27
2023-01-07T23:24:39.764Z,8.50
2023-01-07T23:27:07.178Z,10.90
2023-01-07T23:29:35.979Z,7.03
2023-01-07T23:32:03.534Z,8.43
2023-01-07T23:34:31.068Z,6.05
2023-01-07T23:36:58.434Z,7.15
2023-01-07T23:39:25.836Z,7.53
2023-01-07T23:41:53.230Z,6.88
2023-01-07T23:44:20.734Z,6.10
2023-01-07T23:46:48.299Z,6.60
2023-01-07T23:49:15.756Z,7.63
2023-01-07T23:51:43.102Z,8.43
2023-01-07T23:54:11.062Z,12.55
2023-01-07T23:56:38.413Z,13.30
2023-01-07T23:59:06.794Z,10.20
